sensor_id;sensor_type;location;lat;lon;timestamp;P1;durP1;ratioP1;P2;durP2;ratioP2
41309;SDS011;27057;51.438;-0.010;2022-10-17T00:00:56;21.55;;;6.80;;
41309;SDS011;27057;51.438;-0.010;2022-10-17T00:03:24;11.00;;;4.88;;
41309;SDS011;27057;51.438;-0.010;2022-10-17T00:05:51;20.27;;;5.25;;
41309;SDS011;27057;51.438;-0.010;2022-10-17T00:08:18;17.45;;;5.70;;
41309;SDS011;27057;51.438;-0.010;2022-10-17T00:10:54;18.00;;;4.90;;
41309;SDS011;27057;51.438;-0.010;2022-10-17T00:13:22;19.23;;;5.07;;
41309;SDS011;27057;51.438;-0.010;2022-10-17T00:15:50;22.77;;;5.22;;
41309;SDS011;27057;51.438;-0.010;2022-10-17T00:18:18;14.02;;;4.70;;
41309;SDS011;27057;51.438;-0.010;2022-10-17T00:20:45;15.35;;;4.45;;
41309;SDS011;27057;51.438;-0.010;2022-10-17T00:23:13;14.85;;;4.55;;
41309;SDS011;27057;51.438;-0.010;2022-10-17T00:25:40;15.88;;;5.30;;
41309;SDS011;27057;51.438;-0.010;2022-10-17T00:28:08;15.20;;;5.13;;
41309;SDS011;27057;51.438;-0.010;2022-10-17T00:30:38;17.90;;;4.60;;
41309;SDS011;27057;51.438;-0.010;2022-10-17T00:33:06;13.07;;;4.28;;
41309;SDS011;27057;51.438;-0.010;2022-10-17T00:35:33;21.10;;;4.75;;
41309;SDS011;27057;51.438;-0.010;2022-10-17T00:38:00;15.95;;;4.15;;
41309;SDS011;27057;51.438;-0.010;2022-10-17T00:40:28;17.50;;;4.90;;
41309;SDS011;27057;51.438;-0.010;2022-10-17T00:42:55;18.60;;;4.85;;
41309;SDS011;27057;51.438;-0.010;2022-10-17T00:45:25;25.65;;;5.13;;
41309;SDS011;27057;51.438;-0.010;2022-10-17T00:47:58;12.38;;;4.30;;
41309;SDS011;27057;51.438;-0.010;2022-10-17T00:50:29;18.92;;;4.65;;
41309;SDS011;27057;51.438;-0.010;2022-10-17T00:52:57;15.63;;;3.92;;
41309;SDS011;27057;51.438;-0.010;2022-10-17T00:55:30;25.25;;;5.00;;
41309;SDS011;27057;51.438;-0.010;2022-10-17T00:58:02;16.58;;;4.50;;
41309;SDS011;27057;51.438;-0.010;2022-10-17T01:00:30;23.23;;;3.75;;
41309;SDS011;27057;51.438;-0.010;2022-10-17T01:02:58;14.43;;;3.63;;
41309;SDS011;27057;51.438;-0.010;2022-10-17T01:05:25;29.80;;;4.60;;
41309;SDS011;27057;51.438;-0.010;2022-10-17T01:07:55;19.50;;;3.83;;
41309;SDS011;27057;51.438;-0.010;2022-10-17T01:10:24;16.75;;;3.85;;
41309;SDS011;27057;51.438;-0.010;2022-10-17T01:21:38;19.10;;;3.85;;
41309;SDS011;27057;51.438;-0.010;2022-10-17T01:27:12;11.15;;;3.72;;
41309;SDS011;27057;51.438;-0.010;2022-10-17T01:30:16;15.98;;;3.10;;
41309;SDS011;27057;51.438;-0.010;2022-10-17T01:32:38;23.95;;;3.67;;
41309;SDS011;27057;51.438;-0.010;2022-10-17T01:35:15;9.07;;;3.33;;
41309;SDS011;27057;51.438;-0.010;2022-10-17T01:38:10;19.50;;;3.20;;
41309;SDS011;27057;51.438;-0.010;2022-10-17T01:48:27;17.80;;;2.90;;
41309;SDS011;27057;51.438;-0.010;2022-10-17T01:53:53;12.75;;;3.13;;
41309;SDS011;27057;51.438;-0.010;2022-10-17T01:56:27;9.30;;;2.50;;
41309;SDS011;27057;51.438;-0.010;2022-10-17T01:58:59;8.68;;;3.15;;
41309;SDS011;27057;51.438;-0.010;2022-10-17T02:01:32;18.02;;;3.20;;
41309;SDS011;27057;51.438;-0.010;2022-10-17T02:04:02;12.57;;;3.17;;
41309;SDS011;27057;51.438;-0.010;2022-10-17T02:06:36;14.90;;;3.55;;
41309;SDS011;27057;51.438;-0.010;2022-10-17T02:09:22;5.38;;;2.72;;
41309;SDS011;27057;51.438;-0.010;2022-10-17T02:11:58;12.13;;;2.95;;
41309;SDS011;27057;51.438;-0.010;2022-10-17T02:20:24;18.58;;;3.03;;
41309;SDS011;27057;51.438;-0.010;2022-10-17T02:28:21;6.90;;;2.13;;
41309;SDS011;27057;51.438;-0.010;2022-10-17T02:31:00;19.70;;;3.22;;
41309;SDS011;27057;51.438;-0.010;2022-10-17T02:33:34;19.92;;;2.92;;
41309;SDS011;27057;51.438;-0.010;2022-10-17T02:36:10;16.83;;;3.00;;
41309;SDS011;27057;51.438;-0.010;2022-10-17T02:38:43;9.90;;;2.83;;
41309;SDS011;27057;51.438;-0.010;2022-10-17T02:41:13;20.58;;;3.78;;
41309;SDS011;27057;51.438;-0.010;2022-10-17T02:43:44;13.32;;;3.53;;
41309;SDS011;27057;51.438;-0.010;2022-10-17T02:46:13;11.63;;;3.28;;
41309;SDS011;27057;51.438;-0.010;2022-10-17T02:48:49;16.20;;;3.65;;
41309;SDS011;27057;51.438;-0.010;2022-10-17T02:51:27;8.35;;;3.20;;
41309;SDS011;27057;51.438;-0.010;2022-10-17T02:57:09;16.58;;;3.05;;
41309;SDS011;27057;51.438;-0.010;2022-10-17T02:59:50;14.88;;;2.83;;
41309;SDS011;27057;51.438;-0.010;2022-10-17T03:02:19;12.77;;;2.78;;
41309;SDS011;27057;51.438;-0.010;2022-10-17T03:04:46;17.10;;;3.63;;
41309;SDS011;27057;51.438;-0.010;2022-10-17T03:07:14;15.82;;;2.90;;
41309;SDS011;27057;51.438;-0.010;2022-10-17T03:09:42;18.02;;;3.72;;
41309;SDS011;27057;51.438;-0.010;2022-10-17T03:12:09;16.88;;;2.90;;
41309;SDS011;27057;51.438;-0.010;2022-10-17T03:14:37;14.93;;;2.78;;
41309;SDS011;27057;51.438;-0.010;2022-10-17T03:17:04;6.72;;;2.40;;
41309;SDS011;27057;51.438;-0.010;2022-10-17T03:19:32;20.52;;;3.95;;
41309;SDS011;27057;51.438;-0.010;2022-10-17T03:21:59;17.58;;;3.08;;
41309;SDS011;27057;51.438;-0.010;2022-10-17T03:24:31;12.80;;;2.53;;
41309;SDS011;27057;51.438;-0.010;2022-10-17T03:26:59;14.27;;;2.72;;
41309;SDS011;27057;51.438;-0.010;2022-10-17T03:29:27;17.73;;;2.72;;
41309;SDS011;27057;51.438;-0.010;2022-10-17T03:31:55;22.10;;;3.55;;
41309;SDS011;27057;51.438;-0.010;2022-10-17T03:34:24;13.88;;;2.72;;
41309;SDS011;27057;51.438;-0.010;2022-10-17T03:36:51;18.05;;;2.60;;
41309;SDS011;27057;51.438;-0.010;2022-10-17T03:39:19;18.38;;;3.10;;
41309;SDS011;27057;51.438;-0.010;2022-10-17T03:41:47;8.88;;;2.30;;
41309;SDS011;27057;51.438;-0.010;2022-10-17T03:44:14;22.60;;;3.25;;
41309;SDS011;27057;51.438;-0.010;2022-10-17T03:46:42;14.43;;;2.83;;
41309;SDS011;27057;51.438;-0.010;2022-10-17T03:49:09;13.75;;;3.53;;
41309;SDS011;27057;51.438;-0.010;2022-10-17T03:51:38;16.65;;;2.70;;
41309;SDS011;27057;51.438;-0.010;2022-10-17T03:54:10;14.57;;;3.00;;
41309;SDS011;27057;51.438;-0.010;2022-10-17T03:56:38;14.57;;;3.13;;
41309;SDS011;27057;51.438;-0.010;2022-10-17T03:59:11;15.48;;;2.25;;
41309;SDS011;27057;51.438;-0.010;2022-10-17T04:01:43;12.85;;;2.50;;
41309;SDS011;27057;51.438;-0.010;2022-10-17T04:04:11;13.40;;;2.60;;
41309;SDS011;27057;51.438;-0.010;2022-10-17T04:06:39;17.33;;;2.33;;
41309;SDS011;27057;51.438;-0.010;2022-10-17T04:09:06;17.48;;;2.83;;
41309;SDS011;27057;51.438;-0.010;2022-10-17T04:11:46;12.48;;;2.03;;
41309;SDS011;27057;51.438;-0.010;2022-10-17T04:14:13;12.68;;;2.70;;
41309;SDS011;27057;51.438;-0.010;2022-10-17T04:16:41;17.23;;;3.45;;
41309;SDS011;27057;51.438;-0.010;2022-10-17T04:19:14;18.45;;;3.22;;
41309;SDS011;27057;51.438;-0.010;2022-10-17T04:21:44;12.95;;;2.60;;
41309;SDS011;27057;51.438;-0.010;2022-10-17T04:24:13;16.40;;;3.47;;
41309;SDS011;27057;51.438;-0.010;2022-10-17T04:27:06;15.73;;;2.47;;
41309;SDS011;27057;51.438;-0.010;2022-10-17T04:29:37;20.58;;;4.35;;
41309;SDS011;27057;51.438;-0.010;2022-10-17T04:32:11;14.00;;;2.30;;
41309;SDS011;27057;51.438;-0.010;2022-10-17T04:34:42;13.82;;;2.67;;
41309;SDS011;27057;51.438;-0.010;2022-10-17T04:37:10;20.30;;;3.00;;
41309;SDS011;27057;51.438;-0.010;2022-10-17T04:39:37;16.85;;;2.83;;
41309;SDS011;27057;51.438;-0.010;2022-10-17T04:42:05;16.92;;;2.95;;
41309;SDS011;27057;51.438;-0.010;2022-10-17T04:44:33;27.15;;;3.83;;
41309;SDS011;27057;51.438;-0.010;2022-10-17T04:47:01;18.08;;;2.90;;
41309;SDS011;27057;51.438;-0.010;2022-10-17T04:49:29;16.42;;;3.28;;
41309;SDS011;27057;51.438;-0.010;2022-10-17T04:52:05;17.25;;;3.10;;
41309;SDS011;27057;51.438;-0.010;2022-10-17T04:54:41;16.95;;;3.20;;
41309;SDS011;27057;51.438;-0.010;2022-10-17T04:57:11;14.18;;;2.85;;
41309;SDS011;27057;51.438;-0.010;2022-10-17T04:59:41;24.17;;;3.38;;
41309;SDS011;27057;51.438;-0.010;2022-10-17T05:02:27;19.50;;;2.65;;
41309;SDS011;27057;51.438;-0.010;2022-10-17T05:04:56;20.80;;;3.28;;
41309;SDS011;27057;51.438;-0.010;2022-10-17T05:07:23;28.55;;;3.00;;
41309;SDS011;27057;51.438;-0.010;2022-10-17T05:10:09;21.58;;;2.88;;
41309;SDS011;27057;51.438;-0.010;2022-10-17T05:12:39;20.17;;;2.65;;
41309;SDS011;27057;51.438;-0.010;2022-10-17T05:15:06;16.80;;;3.17;;
41309;SDS011;27057;51.438;-0.010;2022-10-17T05:17:34;17.25;;;3.28;;
41309;SDS011;27057;51.438;-0.010;2022-10-17T05:20:02;11.35;;;2.78;;
41309;SDS011;27057;51.438;-0.010;2022-10-17T05:22:31;16.73;;;2.35;;
41309;SDS011;27057;51.438;-0.010;2022-10-17T05:25:01;17.20;;;3.38;;
41309;SDS011;27057;51.438;-0.010;2022-10-17T05:27:28;11.20;;;2.70;;
41309;SDS011;27057;51.438;-0.010;2022-10-17T05:29:55;18.60;;;3.33;;
41309;SDS011;27057;51.438;-0.010;2022-10-17T05:32:27;21.00;;;2.47;;
41309;SDS011;27057;51.438;-0.010;2022-10-17T05:34:54;17.67;;;2.47;;
41309;SDS011;27057;51.438;-0.010;2022-10-17T05:37:24;14.85;;;2.55;;
41309;SDS011;27057;51.438;-0.010;2022-10-17T05:39:54;16.83;;;2.47;;
41309;SDS011;27057;51.438;-0.010;2022-10-17T05:42:21;27.88;;;4.78;;
41309;SDS011;27057;51.438;-0.010;2022-10-17T05:44:49;19.48;;;2.95;;
41309;SDS011;27057;51.438;-0.010;2022-10-17T05:47:18;22.55;;;3.08;;
41309;SDS011;27057;51.438;-0.010;2022-10-17T05:49:45;22.75;;;3.47;;
41309;SDS011;27057;51.438;-0.010;2022-10-17T05:52:21;21.67;;;3.35;;
41309;SDS011;27057;51.438;-0.010;2022-10-17T05:55:04;30.75;;;3.42;;
41309;SDS011;27057;51.438;-0.010;2022-10-17T05:57:33;14.70;;;2.75;;
41309;SDS011;27057;51.438;-0.010;2022-10-17T06:00:02;41.65;;;4.78;;
41309;SDS011;27057;51.438;-0.010;2022-10-17T06:02:40;19.77;;;3.70;;
41309;SDS011;27057;51.438;-0.010;2022-10-17T06:05:10;15.93;;;3.03;;
41309;SDS011;27057;51.438;-0.010;2022-10-17T06:07:38;26.50;;;3.20;;
41309;SDS011;27057;51.438;-0.010;2022-10-17T06:10:07;31.98;;;4.63;;
41309;SDS011;27057;51.438;-0.010;2022-10-17T06:12:35;19.33;;;3.22;;
41309;SDS011;27057;51.438;-0.010;2022-10-17T06:15:02;26.75;;;3.38;;
41309;SDS011;27057;51.438;-0.010;2022-10-17T06:17:30;18.35;;;3.42;;
41309;SDS011;27057;51.438;-0.010;2022-10-17T06:19:58;19.70;;;3.20;;
41309;SDS011;27057;51.438;-0.010;2022-10-17T06:22:26;16.38;;;3.20;;
41309;SDS011;27057;51.438;-0.010;2022-10-17T06:24:55;14.35;;;2.42;;
41309;SDS011;27057;51.438;-0.010;2022-10-17T06:27:22;8.70;;;1.92;;
41309;SDS011;27057;51.438;-0.010;2022-10-17T06:29:50;9.48;;;1.77;;
41309;SDS011;27057;51.438;-0.010;2022-10-17T06:32:17;10.35;;;2.47;;
41309;SDS011;27057;51.438;-0.010;2022-10-17T06:34:46;20.95;;;1.83;;
41309;SDS011;27057;51.438;-0.010;2022-10-17T06:37:14;3.85;;;2.08;;
41309;SDS011;27057;51.438;-0.010;2022-10-17T06:39:42;13.13;;;2.65;;
41309;SDS011;27057;51.438;-0.010;2022-10-17T06:42:12;14.10;;;1.63;;
41309;SDS011;27057;51.438;-0.010;2022-10-17T06:45:02;15.07;;;2.65;;
41309;SDS011;27057;51.438;-0.010;2022-10-17T06:47:50;11.88;;;1.88;;
41309;SDS011;27057;51.438;-0.010;2022-10-17T06:50:40;15.07;;;1.50;;
41309;SDS011;27057;51.438;-0.010;2022-10-17T06:53:20;10.50;;;1.48;;
41309;SDS011;27057;51.438;-0.010;2022-10-17T06:55:58;10.65;;;2.65;;
41309;SDS011;27057;51.438;-0.010;2022-10-17T06:58:44;12.73;;;2.22;;
41309;SDS011;27057;51.438;-0.010;2022-10-17T07:04:02;7.65;;;1.80;;
41309;SDS011;27057;51.438;-0.010;2022-10-17T07:06:30;9.68;;;2.25;;
41309;SDS011;27057;51.438;-0.010;2022-10-17T07:09:04;11.18;;;1.75;;
41309;SDS011;27057;51.438;-0.010;2022-10-17T07:11:35;8.82;;;1.83;;
41309;SDS011;27057;51.438;-0.010;2022-10-17T07:14:02;17.90;;;2.17;;
41309;SDS011;27057;51.438;-0.010;2022-10-17T07:16:29;10.90;;;2.05;;
41309;SDS011;27057;51.438;-0.010;2022-10-17T07:19:14;7.25;;;1.60;;
41309;SDS011;27057;51.438;-0.010;2022-10-17T07:21:41;19.55;;;2.25;;
41309;SDS011;27057;51.438;-0.010;2022-10-17T07:24:10;10.70;;;2.22;;
41309;SDS011;27057;51.438;-0.010;2022-10-17T07:26:40;14.25;;;2.13;;
41309;SDS011;27057;51.438;-0.010;2022-10-17T07:29:08;18.88;;;2.10;;
41309;SDS011;27057;51.438;-0.010;2022-10-17T07:31:55;12.40;;;2.00;;
41309;SDS011;27057;51.438;-0.010;2022-10-17T07:34:23;12.73;;;2.25;;
41309;SDS011;27057;51.438;-0.010;2022-10-17T07:36:53;9.52;;;1.73;;
41309;SDS011;27057;51.438;-0.010;2022-10-17T07:39:21;8.20;;;1.50;;
41309;SDS011;27057;51.438;-0.010;2022-10-17T07:41:48;21.08;;;2.88;;
41309;SDS011;27057;51.438;-0.010;2022-10-17T07:44:17;11.98;;;1.80;;
41309;SDS011;27057;51.438;-0.010;2022-10-17T07:46:48;11.57;;;1.98;;
41309;SDS011;27057;51.438;-0.010;2022-10-17T07:49:16;11.32;;;1.55;;
41309;SDS011;27057;51.438;-0.010;2022-10-17T07:51:44;8.15;;;1.45;;
41309;SDS011;27057;51.438;-0.010;2022-10-17T07:54:18;11.93;;;1.98;;
41309;SDS011;27057;51.438;-0.010;2022-10-17T07:56:45;15.18;;;2.05;;
41309;SDS011;27057;51.438;-0.010;2022-10-17T07:59:17;7.10;;;1.35;;
41309;SDS011;27057;51.438;-0.010;2022-10-17T08:01:44;14.70;;;2.60;;
41309;SDS011;27057;51.438;-0.010;2022-10-17T08:04:12;16.90;;;2.00;;
41309;SDS011;27057;51.438;-0.010;2022-10-17T08:06:39;15.18;;;2.15;;
41309;SDS011;27057;51.438;-0.010;2022-10-17T08:11:13;9.40;;;1.92;;
41309;SDS011;27057;51.438;-0.010;2022-10-17T08:13:41;9.52;;;1.80;;
41309;SDS011;27057;51.438;-0.010;2022-10-17T08:16:10;18.15;;;2.22;;
41309;SDS011;27057;51.438;-0.010;2022-10-17T08:18:39;12.88;;;1.70;;
41309;SDS011;27057;51.438;-0.010;2022-10-17T08:21:07;18.10;;;1.95;;
41309;SDS011;27057;51.438;-0.010;2022-10-17T08:23:35;11.70;;;2.03;;
41309;SDS011;27057;51.438;-0.010;2022-10-17T08:26:04;16.90;;;1.77;;
41309;SDS011;27057;51.438;-0.010;2022-10-17T08:28:36;12.45;;;2.67;;
41309;SDS011;27057;51.438;-0.010;2022-10-17T08:31:05;11.95;;;1.58;;
41309;SDS011;27057;51.438;-0.010;2022-10-17T08:33:34;14.50;;;1.80;;
41309;SDS011;27057;51.438;-0.010;2022-10-17T08:36:02;10.95;;;2.63;;
41309;SDS011;27057;51.438;-0.010;2022-10-17T08:38:31;12.98;;;2.53;;
41309;SDS011;27057;51.438;-0.010;2022-10-17T08:41:03;11.23;;;3.45;;
41309;SDS011;27057;51.438;-0.010;2022-10-17T08:46:43;15.70;;;1.80;;
41309;SDS011;27057;51.438;-0.010;2022-10-17T08:49:15;10.13;;;1.75;;
41309;SDS011;27057;51.438;-0.010;2022-10-17T08:52:18;11.63;;;2.05;;
41309;SDS011;27057;51.438;-0.010;2022-10-17T08:54:54;11.48;;;2.15;;
41309;SDS011;27057;51.438;-0.010;2022-10-17T08:57:21;9.60;;;2.17;;
41309;SDS011;27057;51.438;-0.010;2022-10-17T08:59:51;17.88;;;4.15;;
41309;SDS011;27057;51.438;-0.010;2022-10-17T09:08:37;15.20;;;2.17;;
41309;SDS011;27057;51.438;-0.010;2022-10-17T09:19:11;16.92;;;2.90;;
41309;SDS011;27057;51.438;-0.010;2022-10-17T09:24:26;15.52;;;2.35;;
41309;SDS011;27057;51.438;-0.010;2022-10-17T09:27:22;20.88;;;3.42;;
41309;SDS011;27057;51.438;-0.010;2022-10-17T09:30:14;25.73;;;2.67;;
41309;SDS011;27057;51.438;-0.010;2022-10-17T09:33:46;19.95;;;3.50;;
41309;SDS011;27057;51.438;-0.010;2022-10-17T09:39:00;7.57;;;1.92;;
41309;SDS011;27057;51.438;-0.010;2022-10-17T09:46:48;9.80;;;2.65;;
41309;SDS011;27057;51.438;-0.010;2022-10-17T09:49:28;11.88;;;2.40;;
41309;SDS011;27057;51.438;-0.010;2022-10-17T09:52:05;19.05;;;3.53;;
41309;SDS011;27057;51.438;-0.010;2022-10-17T09:54:56;24.33;;;2.40;;
41309;SDS011;27057;51.438;-0.010;2022-10-17T09:57:27;15.90;;;2.53;;
41309;SDS011;27057;51.438;-0.010;2022-10-17T10:02:24;18.30;;;4.07;;
41309;SDS011;27057;51.438;-0.010;2022-10-17T10:10:56;31.65;;;3.13;;
41309;SDS011;27057;51.438;-0.010;2022-10-17T10:13:26;17.30;;;2.80;;
41309;SDS011;27057;51.438;-0.010;2022-10-17T10:15:53;15.07;;;1.80;;
41309;SDS011;27057;51.438;-0.010;2022-10-17T10:18:40;19.27;;;2.90;;
41309;SDS011;27057;51.438;-0.010;2022-10-17T10:23:39;19.15;;;3.38;;
41309;SDS011;27057;51.438;-0.010;2022-10-17T10:28:51;6.10;;;1.70;;
41309;SDS011;27057;51.438;-0.010;2022-10-17T10:31:30;17.42;;;2.58;;
41309;SDS011;27057;51.438;-0.010;2022-10-17T10:34:00;17.75;;;2.88;;
41309;SDS011;27057;51.438;-0.010;2022-10-17T10:39:40;26.10;;;2.22;;
41309;SDS011;27057;51.438;-0.010;2022-10-17T10:42:32;17.27;;;2.58;;
41309;SDS011;27057;51.438;-0.010;2022-10-17T10:56:41;18.52;;;2.47;;
41309;SDS011;27057;51.438;-0.010;2022-10-17T10:59:21;27.50;;;3.40;;
41309;SDS011;27057;51.438;-0.010;2022-10-17T11:02:22;20.05;;;2.58;;
41309;SDS011;27057;51.438;-0.010;2022-10-17T11:10:59;18.48;;;2.13;;
41309;SDS011;27057;51.438;-0.010;2022-10-17T11:13:52;13.27;;;2.78;;
41309;SDS011;27057;51.438;-0.010;2022-10-17T11:19:36;22.40;;;2.83;;
41309;SDS011;27057;51.438;-0.010;2022-10-17T11:22:17;7.07;;;2.00;;
41309;SDS011;27057;51.438;-0.010;2022-10-17T11:27:23;19.30;;;2.60;;
41309;SDS011;27057;51.438;-0.010;2022-10-17T11:29:51;21.60;;;2.45;;
41309;SDS011;27057;51.438;-0.010;2022-10-17T11:32:25;25.15;;;2.75;;
41309;SDS011;27057;51.438;-0.010;2022-10-17T11:34:59;14.55;;;2.03;;
41309;SDS011;27057;51.438;-0.010;2022-10-17T11:37:49;17.05;;;2.38;;
41309;SDS011;27057;51.438;-0.010;2022-10-17T11:40:37;15.98;;;2.53;;
41309;SDS011;27057;51.438;-0.010;2022-10-17T11:46:04;10.43;;;1.25;;
41309;SDS011;27057;51.438;-0.010;2022-10-17T11:51:28;12.30;;;1.35;;
41309;SDS011;27057;51.438;-0.010;2022-10-17T11:54:24;10.55;;;1.80;;
41309;SDS011;27057;51.438;-0.010;2022-10-17T11:57:16;21.95;;;3.38;;
41309;SDS011;27057;51.438;-0.010;2022-10-17T12:08:34;19.25;;;2.38;;
41309;SDS011;27057;51.438;-0.010;2022-10-17T12:11:15;11.02;;;2.60;;
41309;SDS011;27057;51.438;-0.010;2022-10-17T12:13:51;11.38;;;1.85;;
41309;SDS011;27057;51.438;-0.010;2022-10-17T12:19:17;15.50;;;2.22;;
41309;SDS011;27057;51.438;-0.010;2022-10-17T12:24:43;25.20;;;3.90;;
41309;SDS011;27057;51.438;-0.010;2022-10-17T12:28:00;11.23;;;1.50;;
41309;SDS011;27057;51.438;-0.010;2022-10-17T12:30:25;21.83;;;2.95;;
41309;SDS011;27057;51.438;-0.010;2022-10-17T12:32:54;9.90;;;1.75;;
41309;SDS011;27057;51.438;-0.010;2022-10-17T12:35:32;14.85;;;1.73;;
41309;SDS011;27057;51.438;-0.010;2022-10-17T12:45:46;16.75;;;2.10;;
41309;SDS011;27057;51.438;-0.010;2022-10-17T12:54:13;17.73;;;2.45;;
41309;SDS011;27057;51.438;-0.010;2022-10-17T12:56:43;12.85;;;2.08;;
41309;SDS011;27057;51.438;-0.010;2022-10-17T13:01:47;15.55;;;2.15;;
41309;SDS011;27057;51.438;-0.010;2022-10-17T13:04:19;18.00;;;2.78;;
41309;SDS011;27057;51.438;-0.010;2022-10-17T13:06:48;15.77;;;2.38;;
41309;SDS011;27057;51.438;-0.010;2022-10-17T13:09:27;27.50;;;2.42;;
41309;SDS011;27057;51.438;-0.010;2022-10-17T13:11:55;14.27;;;2.03;;
41309;SDS011;27057;51.438;-0.010;2022-10-17T13:14:26;16.25;;;2.25;;
41309;SDS011;27057;51.438;-0.010;2022-10-17T13:16:58;11.40;;;1.98;;
41309;SDS011;27057;51.438;-0.010;2022-10-17T13:19:38;17.20;;;2.53;;
41309;SDS011;27057;51.438;-0.010;2022-10-17T13:22:15;15.27;;;2.35;;
41309;SDS011;27057;51.438;-0.010;2022-10-17T13:27:35;26.65;;;3.13;;
41309;SDS011;27057;51.438;-0.010;2022-10-17T13:30:20;15.68;;;2.67;;
41309;SDS011;27057;51.438;-0.010;2022-10-17T13:32:50;15.45;;;3.13;;
41309;SDS011;27057;51.438;-0.010;2022-10-17T13:35:31;22.05;;;3.45;;
41309;SDS011;27057;51.438;-0.010;2022-10-17T13:38:22;21.60;;;3.35;;
41309;SDS011;27057;51.438;-0.010;2022-10-17T13:40:53;22.95;;;3.53;;
41309;SDS011;27057;51.438;-0.010;2022-10-17T13:43:36;12.93;;;2.55;;
41309;SDS011;27057;51.438;-0.010;2022-10-17T13:46:04;19.65;;;2.97;;
41309;SDS011;27057;51.438;-0.010;2022-10-17T13:48:52;13.60;;;2.55;;
41309;SDS011;27057;51.438;-0.010;2022-10-17T13:51:20;18.80;;;5.18;;
41309;SDS011;27057;51.438;-0.010;2022-10-17T13:53:48;15.48;;;2.70;;
41309;SDS011;27057;51.438;-0.010;2022-10-17T13:56:25;20.00;;;3.22;;
41309;SDS011;27057;51.438;-0.010;2022-10-17T13:58:56;23.48;;;3.47;;
41309;SDS011;27057;51.438;-0.010;2022-10-17T14:01:27;15.00;;;3.00;;
41309;SDS011;27057;51.438;-0.010;2022-10-17T14:03:55;20.50;;;4.25;;
41309;SDS011;27057;51.438;-0.010;2022-10-17T14:06:41;22.42;;;2.97;;
41309;SDS011;27057;51.438;-0.010;2022-10-17T14:09:19;14.35;;;1.92;;
41309;SDS011;27057;51.438;-0.010;2022-10-17T14:11:55;16.67;;;2.50;;
41309;SDS011;27057;51.438;-0.010;2022-10-17T14:14:28;17.95;;;2.50;;
41309;SDS011;27057;51.438;-0.010;2022-10-17T14:17:12;22.50;;;2.45;;
41309;SDS011;27057;51.438;-0.010;2022-10-17T14:19:50;24.90;;;2.90;;
41309;SDS011;27057;51.438;-0.010;2022-10-17T14:22:40;19.27;;;2.67;;
41309;SDS011;27057;51.438;-0.010;2022-10-17T14:28:13;20.20;;;3.38;;
41309;SDS011;27057;51.438;-0.010;2022-10-17T14:30:43;13.52;;;2.70;;
41309;SDS011;27057;51.438;-0.010;2022-10-17T14:33:30;18.17;;;3.00;;
41309;SDS011;27057;51.438;-0.010;2022-10-17T14:35:59;20.08;;;2.80;;
41309;SDS011;27057;51.438;-0.010;2022-10-17T14:38:28;16.90;;;2.67;;
41309;SDS011;27057;51.438;-0.010;2022-10-17T14:41:01;17.02;;;2.75;;
41309;SDS011;27057;51.438;-0.010;2022-10-17T14:44:00;20.45;;;3.78;;
41309;SDS011;27057;51.438;-0.010;2022-10-17T14:46:30;22.75;;;3.22;;
41309;SDS011;27057;51.438;-0.010;2022-10-17T14:49:04;21.83;;;3.08;;
41309;SDS011;27057;51.438;-0.010;2022-10-17T14:51:33;19.95;;;3.70;;
41309;SDS011;27057;51.438;-0.010;2022-10-17T14:54:22;26.42;;;3.38;;
41309;SDS011;27057;51.438;-0.010;2022-10-17T14:56:52;22.80;;;3.30;;
41309;SDS011;27057;51.438;-0.010;2022-10-17T14:59:20;7.90;;;1.90;;
41309;SDS011;27057;51.438;-0.010;2022-10-17T15:02:11;21.45;;;2.78;;
41309;SDS011;27057;51.438;-0.010;2022-10-17T15:04:39;25.98;;;4.30;;
41309;SDS011;27057;51.438;-0.010;2022-10-17T15:07:11;22.75;;;2.38;;
41309;SDS011;27057;51.438;-0.010;2022-10-17T15:09:41;16.58;;;2.17;;
41309;SDS011;27057;51.438;-0.010;2022-10-17T15:12:14;15.98;;;2.80;;
41309;SDS011;27057;51.438;-0.010;2022-10-17T15:14:44;18.30;;;2.67;;
41309;SDS011;27057;51.438;-0.010;2022-10-17T15:17:15;23.13;;;2.80;;
41309;SDS011;27057;51.438;-0.010;2022-10-17T15:20:05;22.95;;;2.38;;
41309;SDS011;27057;51.438;-0.010;2022-10-17T15:22:40;14.57;;;2.13;;
41309;SDS011;27057;51.438;-0.010;2022-10-17T15:25:08;10.07;;;1.60;;
41309;SDS011;27057;51.438;-0.010;2022-10-17T15:27:35;23.63;;;3.45;;
41309;SDS011;27057;51.438;-0.010;2022-10-17T15:30:03;18.52;;;2.30;;
41309;SDS011;27057;51.438;-0.010;2022-10-17T15:32:37;20.77;;;2.75;;
41309;SDS011;27057;51.438;-0.010;2022-10-17T15:35:04;23.20;;;2.67;;
41309;SDS011;27057;51.438;-0.010;2022-10-17T15:37:32;17.40;;;2.40;;
41309;SDS011;27057;51.438;-0.010;2022-10-17T15:39:59;18.77;;;2.40;;
41309;SDS011;27057;51.438;-0.010;2022-10-17T15:42:27;20.77;;;2.78;;
41309;SDS011;27057;51.438;-0.010;2022-10-17T15:44:56;14.57;;;2.80;;
41309;SDS011;27057;51.438;-0.010;2022-10-17T15:47:25;17.38;;;2.50;;
41309;SDS011;27057;51.438;-0.010;2022-10-17T15:49:58;15.32;;;2.03;;
41309;SDS011;27057;51.438;-0.010;2022-10-17T15:52:26;12.45;;;2.30;;
41309;SDS011;27057;51.438;-0.010;2022-10-17T15:54:53;12.55;;;2.05;;
41309;SDS011;27057;51.438;-0.010;2022-10-17T15:57:26;14.85;;;2.03;;
41309;SDS011;27057;51.438;-0.010;2022-10-17T15:59:56;10.55;;;2.20;;
41309;SDS011;27057;51.438;-0.010;2022-10-17T16:02:25;11.02;;;1.90;;
41309;SDS011;27057;51.438;-0.010;2022-10-17T16:04:53;6.45;;;2.05;;
41309;SDS011;27057;51.438;-0.010;2022-10-17T16:07:20;16.00;;;1.90;;
41309;SDS011;27057;51.438;-0.010;2022-10-17T16:09:48;10.13;;;1.55;;
41309;SDS011;27057;51.438;-0.010;2022-10-17T16:12:21;9.10;;;1.77;;
41309;SDS011;27057;51.438;-0.010;2022-10-17T16:14:53;10.30;;;1.85;;
41309;SDS011;27057;51.438;-0.010;2022-10-17T16:17:21;16.42;;;1.58;;
41309;SDS011;27057;51.438;-0.010;2022-10-17T16:19:48;9.25;;;2.05;;
41309;SDS011;27057;51.438;-0.010;2022-10-17T16:22:21;9.13;;;1.42;;
41309;SDS011;27057;51.438;-0.010;2022-10-17T16:24:58;10.43;;;1.88;;
41309;SDS011;27057;51.438;-0.010;2022-10-17T16:27:33;21.80;;;2.38;;
41309;SDS011;27057;51.438;-0.010;2022-10-17T16:30:02;11.05;;;1.75;;
41309;SDS011;27057;51.438;-0.010;2022-10-17T16:32:30;15.32;;;2.70;;
41309;SDS011;27057;51.438;-0.010;2022-10-17T16:34:58;24.55;;;2.20;;
41309;SDS011;27057;51.438;-0.010;2022-10-17T16:37:26;8.82;;;1.58;;
41309;SDS011;27057;51.438;-0.010;2022-10-17T16:39:53;12.35;;;1.90;;
41309;SDS011;27057;51.438;-0.010;2022-10-17T16:42:20;22.02;;;2.20;;
41309;SDS011;27057;51.438;-0.010;2022-10-17T16:44:48;11.80;;;1.95;;
41309;SDS011;27057;51.438;-0.010;2022-10-17T16:47:17;7.70;;;1.38;;
41309;SDS011;27057;51.438;-0.010;2022-10-17T16:49:44;8.60;;;1.75;;
41309;SDS011;27057;51.438;-0.010;2022-10-17T16:52:12;8.20;;;1.33;;
41309;SDS011;27057;51.438;-0.010;2022-10-17T16:54:39;17.65;;;2.22;;
41309;SDS011;27057;51.438;-0.010;2022-10-17T16:57:07;12.18;;;1.40;;
41309;SDS011;27057;51.438;-0.010;2022-10-17T16:59:34;20.38;;;2.17;;
41309;SDS011;27057;51.438;-0.010;2022-10-17T17:02:02;11.70;;;1.58;;
41309;SDS011;27057;51.438;-0.010;2022-10-17T17:04:30;14.85;;;2.30;;
41309;SDS011;27057;51.438;-0.010;2022-10-17T17:06:57;18.95;;;2.00;;
41309;SDS011;27057;51.438;-0.010;2022-10-17T17:09:24;9.77;;;2.10;;
41309;SDS011;27057;51.438;-0.010;2022-10-17T17:11:52;24.02;;;1.92;;
41309;SDS011;27057;51.438;-0.010;2022-10-17T17:14:19;38.83;;;3.50;;
41309;SDS011;27057;51.438;-0.010;2022-10-17T17:16:47;16.88;;;2.53;;
41309;SDS011;27057;51.438;-0.010;2022-10-17T17:19:14;17.98;;;2.22;;
41309;SDS011;27057;51.438;-0.010;2022-10-17T17:21:42;20.75;;;2.08;;
41309;SDS011;27057;51.438;-0.010;2022-10-17T17:24:17;12.02;;;2.13;;
41309;SDS011;27057;51.438;-0.010;2022-10-17T17:26:50;12.07;;;2.22;;